LFRN 121000Z AUTO VRB03KT CAVOK 04/02 Q1013 NOSIG

ElémentsDécodage
LFRN Station météo située sur l'aérodrome de RENNES Saint-Jacques
121000Z émis le 12 du mois à 10h00 UTC
AUTO Bulletin édité par un automate
VRB03KT vent de direction variable, 03 noeuds
CAVOK Ceiling And Visibility OK
- Visibilité de 10 Km ou plus
- Pas de nuage au-dessous de 1500m ou au-dessous de l'altitude minimale du secteur la plus élevée (si>1500m) et absence de CB
- pas de temps présent significatif
04/02 température 04°C, point de rosée 02°C
 soit une humidité relative de 87%
Q1013 la pression au niveau de la mer (QNH) est de 1013 hPa
NOSIG Pas de changement significatif prévu au cours des deux heures suivant l'heure de l'observation